Pendleton, Arkansas
Current Conditions -  °F | °C
As of 11:53 AM on Monday 24 Nov 2014 (Local Time) from KLLQ Reporting Station
Clear Clear  
Wind Chill: 57°   Ceiling: Unl
Heat Index: 57°   Visibility: 10mi
Dew Point: 32°   Wind: 9mph
Humidity: 39%   Direction: 330°NNW
Pressure: 29.95"   Gusts: NA
Location:  33.9283°N, 91.468°W
Report Text: KLLQ 241753Z AUTO 33008KT 290V350 10SM CLR 14/00 A2995 RMK AO2 SLP140 T01390000 10139 20083 50011
Loading
Personal Weather Stations






























Interactive Weather Map New forecast layout! Learn more

10-Day Weather Forecast

Advertisements
Track Severe Weather on mobile